Time,TemperatureF,DewpointF,PressureIn,WindDirection,WindDirectionDegrees,WindSpeedMPH,WindSpeedGustMPH,Humidity,HourlyPrecipIn,Conditions,Clouds,dailyrainin,SolarRadiationWatts/m^2,SoftwareType,DateUTC
2013-04-30 00:01:00,70.7,54.2,29.60,SSW,201,15.0,15.0,56,0.00,FEW,,0.00,0.0,WeatherDisplay:10.37,2013-04-30 05:01:00,
2013-04-30 00:06:00,70.5,54.5,29.60,SSW,197,18.4,18.4,57,0.00,FEW,,0.00,0.0,WeatherDisplay:10.37,2013-04-30 05:06:00,
2013-04-30 00:11:00,70.3,54.3,29.60,South,175,16.1,16.1,57,0.00,FEW,,0.00,0.0,WeatherDisplay:10.37,2013-04-30 05:11:00,
2013-04-30 00:16:00,70.1,54.2,29.60,ESE,118,11.5,11.5,57,0.00,FEW,,0.00,0.0,WeatherDisplay:10.37,2013-04-30 05:16:00,
2013-04-30 00:21:00,69.8,54.4,29.60,SW,232,15.0,15.0,58,0.00,FEW,,0.00,0.0,WeatherDisplay:10.37,2013-04-30 05:21:00,
2013-04-30 00:26:00,69.7,54.3,29.60,SE,144,12.7,12.7,58,0.00,FEW,,0.00,0.0,WeatherDisplay:10.37,2013-04-30 05:26:00,
2013-04-30 00:31:00,69.5,54.1,29.61,South,180,12.7,12.7,58,0.00,FEW,,0.00,0.0,WeatherDisplay:10.37,2013-04-30 05:31:00,
2013-04-30 00:36:00,69.4,54.0,29.61,South,172,11.5,11.5,58,0.00,FEW,,0.00,0.0,WeatherDisplay:10.37,2013-04-30 05:36:00,
2013-04-30 00:41:00,69.3,53.9,29.61,SSE,154,11.5,11.5,58,0.00,FEW,,0.00,0.0,WeatherDisplay:10.37,2013-04-30 05:41:00,
2013-04-30 00:46:00,69.1,53.7,29.61,SSE,158,11.5,11.5,58,0.00,FEW,,0.00,0.0,WeatherDisplay:10.37,2013-04-30 05:46:00,
2013-04-30 00:51:00,69.0,53.6,29.62,ESE,117,11.5,11.5,58,0.00,FEW,,0.00,0.0,WeatherDisplay:10.37,2013-04-30 05:51:00,
2013-04-30 00:56:00,68.8,53.9,29.62,SSE,161,8.0,8.0,59,0.00,FEW,,0.00,0.0,WeatherDisplay:10.37,2013-04-30 05:56:00,
2013-04-30 01:01:00,68.6,53.7,29.62,SSW,192,6.9,6.9,59,0.00,SCT,,0.00,0.0,WeatherDisplay:10.37,2013-04-30 06:01:00,
2013-04-30 01:06:00,68.4,53.5,29.62,South,177,9.2,9.2,59,0.00,SCT,,0.00,0.0,WeatherDisplay:10.37,2013-04-30 06:06:00,
2013-04-30 01:11:00,68.1,53.2,29.62,SSE,162,11.5,11.5,59,0.00,SCT,,0.00,0.0,WeatherDisplay:10.37,2013-04-30 06:11:00,
2013-04-30 01:16:00,67.9,53.0,29.62,SSE,157,12.0,12.0,59,0.00,SCT,,0.00,0.0,WeatherDisplay:10.37,2013-04-30 06:16:00,
2013-04-30 01:21:00,67.7,53.3,29.62,South,175,12.7,12.7,60,0.00,SCT,,0.00,0.0,WeatherDisplay:10.37,2013-04-30 06:21:00,
2013-04-30 01:26:00,67.6,53.2,29.62,SSW,194,10.4,10.4,60,0.00,SCT,,0.00,0.0,WeatherDisplay:10.37,2013-04-30 06:26:00,
2013-04-30 01:31:00,67.4,53.0,29.63,SSE,154,8.1,8.1,60,0.00,SCT,,0.00,0.0,WeatherDisplay:10.37,2013-04-30 06:31:00,
2013-04-30 01:36:00,67.2,53.3,29.63,SW,221,11.5,11.5,61,0.00,SCT,,0.00,0.0,WeatherDisplay:10.37,2013-04-30 06:36:00,
2013-04-30 01:41:00,67.0,53.1,29.63,South,182,12.7,12.7,61,0.00,SCT,,0.00,0.0,WeatherDisplay:10.37,2013-04-30 06:41:00,
2013-04-30 01:46:00,66.8,52.9,29.63,ESE,117,8.1,8.1,61,0.00,SCT,,0.00,0.0,WeatherDisplay:10.37,2013-04-30 06:46:00,
2013-04-30 01:51:00,66.6,53.2,29.63,SSE,161,6.9,6.9,62,0.00,SCT,,0.00,0.0,WeatherDisplay:10.37,2013-04-30 06:51:00,
2013-04-30 01:56:00,66.3,52.9,29.63,SSE,163,6.9,6.9,62,0.00,SCT,,0.00,0.0,WeatherDisplay:10.37,2013-04-30 06:56:00,
2013-04-30 02:01:00,66.1,53.1,29.63,SSE,161,9.2,9.2,63,0.00,SCT,,0.00,0.0,WeatherDisplay:10.37,2013-04-30 07:01:00,
2013-04-30 02:06:00,65.8,52.9,29.63,South,169,12.7,12.7,63,0.00,SCT,,0.00,0.0,WeatherDisplay:10.37,2013-04-30 07:06:00,
2013-04-30 02:11:00,65.7,52.8,29.63,SSE,148,11.5,11.5,63,0.00,SCT,,0.00,0.0,WeatherDisplay:10.37,2013-04-30 07:11:00,
2013-04-30 02:16:00,65.6,53.1,29.63,SSE,161,6.0,6.0,64,0.00,SCT,,0.00,0.0,WeatherDisplay:10.37,2013-04-30 07:16:00,
2013-04-30 02:21:00,65.4,52.9,29.63,SSE,167,6.9,6.9,64,0.00,SCT,,0.00,0.0,WeatherDisplay:10.37,2013-04-30 07:21:00,
2013-04-30 02:26:00,65.2,52.7,29.63,SSE,163,6.9,6.9,64,0.00,SCT,,0.00,0.0,WeatherDisplay:10.37,2013-04-30 07:26:00,
2013-04-30 02:31:00,65.0,52.5,29.63,SSE,156,11.5,11.5,64,0.00,SCT,,0.00,0.0,WeatherDisplay:10.37,2013-04-30 07:31:00,
2013-04-30 02:36:00,64.9,52.8,29.63,South,182,15.0,15.0,65,0.00,SCT,,0.00,0.0,WeatherDisplay:10.37,2013-04-30 07:36:00,
2013-04-30 02:41:00,64.8,52.8,29.63,SE,130,11.5,11.5,65,0.00,SCT,,0.00,0.0,WeatherDisplay:10.37,2013-04-30 07:41:00,
2013-04-30 02:46:00,64.8,53.2,29.63,South,174,10.4,10.4,66,0.00,SCT,,0.00,0.0,WeatherDisplay:10.37,2013-04-30 07:46:00,
2013-04-30 02:51:00,64.6,53.0,29.63,South,179,12.7,12.7,66,0.00,SCT,,0.00,0.0,WeatherDisplay:10.37,2013-04-30 07:51:00,
2013-04-30 02:56:00,64.5,52.9,29.63,South,181,11.5,11.5,66,0.00,SCT,,0.00,0.0,WeatherDisplay:10.37,2013-04-30 07:56:00,
2013-04-30 03:01:00,64.4,53.2,29.63,South,191,12.0,12.0,67,0.00,SCT,,0.00,0.0,WeatherDisplay:10.37,2013-04-30 08:01:00,
2013-04-30 03:06:00,64.3,53.1,29.63,South,177,10.4,10.4,67,0.00,SCT,,0.00,0.0,WeatherDisplay:10.37,2013-04-30 08:06:00,
2013-04-30 03:11:00,64.1,52.9,29.63,South,175,11.5,11.5,67,0.00,SCT,,0.00,0.0,WeatherDisplay:10.37,2013-04-30 08:11:00,
2013-04-30 03:16:00,63.9,53.1,29.63,SSE,159,15.0,15.0,68,0.00,SCT,,0.00,0.0,WeatherDisplay:10.37,2013-04-30 08:16:00,
2013-04-30 03:21:00,63.8,53.0,29.63,SSE,164,9.2,9.2,68,0.00,SCT,,0.00,0.0,WeatherDisplay:10.37,2013-04-30 08:21:00,
2013-04-30 03:26:00,63.7,53.3,29.63,South,186,9.2,9.2,69,0.00,SCT,,0.00,0.0,WeatherDisplay:10.37,2013-04-30 08:26:00,
2013-04-30 03:31:00,63.6,53.6,29.63,SSE,159,10.4,10.4,70,0.00,SCT,,0.00,0.0,WeatherDisplay:10.37,2013-04-30 08:31:00,
2013-04-30 03:36:00,63.5,53.5,29.63,SE,126,8.1,8.1,70,0.00,SCT,,0.00,0.0,WeatherDisplay:10.37,2013-04-30 08:36:00,
2013-04-30 03:41:00,63.4,53.8,29.63,SE,138,11.5,11.5,71,0.00,SCT,,0.00,0.0,WeatherDisplay:10.37,2013-04-30 08:41:00,
2013-04-30 03:46:00,63.2,53.6,29.63,SE,144,6.9,6.9,71,0.00,SCT,,0.00,0.0,WeatherDisplay:10.37,2013-04-30 08:46:00,
2013-04-30 03:51:00,63.1,53.9,29.63,SE,144,12.0,12.0,72,0.00,SCT,,0.00,0.0,WeatherDisplay:10.37,2013-04-30 08:51:00,
2013-04-30 03:56:00,63.1,53.9,29.63,SSE,154,11.5,11.5,72,0.00,SCT,,0.00,0.0,WeatherDisplay:10.37,2013-04-30 08:56:00,
2013-04-30 04:01:00,63.0,54.2,29.63,South,171,8.1,8.1,73,0.00,SCT,,0.00,0.0,WeatherDisplay:10.37,2013-04-30 09:01:00,
2013-04-30 04:06:00,62.9,54.1,29.63,SE,146,8.1,8.1,73,0.00,SCT,,0.00,0.0,WeatherDisplay:10.37,2013-04-30 09:06:00,
2013-04-30 04:11:00,62.8,54.0,29.63,SE,126,11.5,11.5,73,0.00,SCT,,0.00,0.0,WeatherDisplay:10.37,2013-04-30 09:11:00,
2013-04-30 04:16:00,62.7,54.3,29.64,South,177,9.2,9.2,74,0.00,SCT,,0.00,0.0,WeatherDisplay:10.37,2013-04-30 09:16:00,
2013-04-30 04:21:00,62.7,54.7,29.64,SE,134,9.2,9.2,75,0.00,SCT,,0.00,0.0,WeatherDisplay:10.37,2013-04-30 09:21:00,
2013-04-30 04:26:00,62.7,54.7,29.63,SE,145,9.2,9.2,75,0.00,SCT,,0.00,0.0,WeatherDisplay:10.37,2013-04-30 09:26:00,
2013-04-30 04:31:00,62.7,54.7,29.63,SSE,151,5.8,5.8,75,0.00,SCT,,0.00,0.0,WeatherDisplay:10.37,2013-04-30 09:31:00,
2013-04-30 04:36:00,62.6,54.6,29.63,South,179,8.1,8.1,75,0.00,SCT,,0.00,0.0,WeatherDisplay:10.37,2013-04-30 09:36:00,
2013-04-30 04:41:00,62.5,54.8,29.63,SSE,155,11.5,11.5,76,0.00,SCT,,0.00,0.0,WeatherDisplay:10.37,2013-04-30 09:41:00,
2013-04-30 04:46:00,62.4,54.7,29.63,SSE,150,9.2,9.2,76,0.00,SCT,,0.00,0.0,WeatherDisplay:10.37,2013-04-30 09:46:00,
2013-04-30 04:51:00,62.3,55.0,29.63,South,182,11.5,11.5,77,0.00,SCT,,0.00,0.0,WeatherDisplay:10.37,2013-04-30 09:51:00,
2013-04-30 04:56:00,62.3,55.0,29.63,South,180,6.9,6.9,77,0.00,SCT,,0.00,0.0,WeatherDisplay:10.37,2013-04-30 09:56:00,
2013-04-30 05:01:00,62.2,54.9,29.63,SSE,164,9.2,9.2,77,0.00,SCT,,0.00,0.0,WeatherDisplay:10.37,2013-04-30 10:01:00,
2013-04-30 05:06:00,62.1,54.8,29.63,SE,126,11.5,11.5,77,0.00,SCT,,0.00,0.0,WeatherDisplay:10.37,2013-04-30 10:06:00,
2013-04-30 05:11:00,62.1,55.2,29.63,South,170,7.0,7.0,78,0.00,SCT,,0.00,0.0,WeatherDisplay:10.37,2013-04-30 10:11:00,
2013-04-30 05:16:00,61.9,55.0,29.64,South,186,5.8,5.8,78,0.00,SCT,,0.00,0.0,WeatherDisplay:10.37,2013-04-30 10:16:00,
2013-04-30 05:21:00,61.9,55.3,29.64,SE,130,8.1,8.1,79,0.00,SCT,,0.00,0.0,WeatherDisplay:10.37,2013-04-30 10:21:00,
2013-04-30 05:26:00,61.8,55.2,29.64,South,174,9.0,9.0,79,0.00,SCT,,0.00,0.0,WeatherDisplay:10.37,2013-04-30 10:26:00,
2013-04-30 05:31:00,61.8,55.2,29.64,SSE,162,9.2,9.2,79,0.00,SCT,,0.00,0.0,WeatherDisplay:10.37,2013-04-30 10:31:00,
2013-04-30 05:36:00,61.7,55.5,29.64,SSE,168,11.5,11.5,80,0.00,SCT,,0.00,0.0,WeatherDisplay:10.37,2013-04-30 10:36:00,
2013-04-30 05:41:00,61.7,55.5,29.64,SSE,159,5.8,5.8,80,0.00,SCT,,0.00,0.0,WeatherDisplay:10.37,2013-04-30 10:41:00,
2013-04-30 05:46:00,61.6,55.4,29.64,ESE,117,10.4,10.4,80,0.00,SCT,,0.00,0.0,WeatherDisplay:10.37,2013-04-30 10:46:00,
2013-04-30 05:51:00,61.5,55.3,29.64,South,181,17.3,17.3,80,0.00,SCT,,0.00,0.0,WeatherDisplay:10.37,2013-04-30 10:51:00,
2013-04-30 05:56:00,61.5,55.6,29.64,SSE,150,6.9,6.9,81,0.00,SCT,,0.00,0.0,WeatherDisplay:10.37,2013-04-30 10:56:00,
2013-04-30 06:01:00,61.5,55.6,29.64,South,171,11.5,11.5,81,0.00,SCT,,0.00,0.0,WeatherDisplay:10.37,2013-04-30 11:01:00,
2013-04-30 06:06:00,61.5,55.6,29.65,ESE,117,11.5,11.5,81,0.00,SCT,,0.00,0.0,WeatherDisplay:10.37,2013-04-30 11:06:00,
2013-04-30 06:11:00,61.4,55.5,29.65,SSE,153,6.9,6.9,81,0.00,SCT,,0.00,0.0,WeatherDisplay:10.37,2013-04-30 11:11:00,
2013-04-30 06:16:00,61.3,55.8,29.65,SSE,159,8.1,8.1,82,0.00,SCT,,0.00,0.0,WeatherDisplay:10.37,2013-04-30 11:16:00,
2013-04-30 06:21:00,61.3,55.8,29.65,SSE,159,10.0,10.0,82,0.00,SCT,,0.00,0.0,WeatherDisplay:10.37,2013-04-30 11:21:00,
2013-04-30 06:26:00,61.3,56.1,29.65,South,170,11.5,11.5,83,0.00,SCT,,0.00,0.0,WeatherDisplay:10.37,2013-04-30 11:26:00,
2013-04-30 06:31:00,61.3,56.1,29.65,SSE,149,9.2,9.2,83,0.00,SCT,,0.00,0.0,WeatherDisplay:10.37,2013-04-30 11:31:00,
2013-04-30 06:36:00,61.3,56.1,29.65,ESE,112,9.2,9.2,83,0.00,SCT,,0.00,0.0,WeatherDisplay:10.37,2013-04-30 11:36:00,
2013-04-30 06:41:00,61.4,56.2,29.65,South,171,11.5,11.5,83,0.00,SCT,,0.00,7.0,WeatherDisplay:10.37,2013-04-30 11:41:00,
2013-04-30 06:46:00,61.4,56.2,29.65,South,190,8.1,8.1,83,0.00,SCT,,0.00,11.0,WeatherDisplay:10.37,2013-04-30 11:46:00,
2013-04-30 06:51:00,61.5,56.6,29.65,SSE,150,9.2,9.2,84,0.00,SCT,,0.00,14.0,WeatherDisplay:10.37,2013-04-30 11:51:00,
2013-04-30 06:56:00,61.6,56.7,29.65,SSE,161,11.5,11.5,84,0.00,SCT,,0.00,18.0,WeatherDisplay:10.37,2013-04-30 11:56:00,
2013-04-30 07:01:00,61.7,56.8,29.65,SSE,151,13.8,13.8,84,0.00,BKN,,0.00,21.0,WeatherDisplay:10.37,2013-04-30 12:01:00,
2013-04-30 07:06:00,61.8,56.9,29.65,South,185,6.9,6.9,84,0.00,BKN,,0.00,25.0,WeatherDisplay:10.37,2013-04-30 12:06:00,
2013-04-30 07:11:00,61.9,57.0,29.65,SSE,157,10.4,10.4,84,0.00,BKN,,0.00,30.0,WeatherDisplay:10.37,2013-04-30 12:11:00,
2013-04-30 07:16:00,62.0,57.1,29.66,SSE,157,10.4,10.4,84,0.00,BKN,,0.00,33.0,WeatherDisplay:10.37,2013-04-30 12:16:00,
2013-04-30 07:21:00,62.2,57.3,29.65,SSE,162,11.5,11.5,84,0.00,BKN,,0.00,39.0,WeatherDisplay:10.37,2013-04-30 12:21:00,
2013-04-30 07:26:00,62.3,57.1,29.65,SE,138,9.0,9.0,83,0.00,BKN,,0.00,44.0,WeatherDisplay:10.37,2013-04-30 12:26:00,
2013-04-30 07:31:00,62.6,57.4,29.65,ESE,122,8.1,8.1,83,0.00,BKN,,0.00,60.0,WeatherDisplay:10.37,2013-04-30 12:31:00,
2013-04-30 07:36:00,62.8,57.6,29.65,SSW,192,10.4,10.4,83,0.00,BKN,,0.00,76.0,WeatherDisplay:10.37,2013-04-30 12:36:00,
2013-04-30 07:41:00,63.1,57.5,29.65,SSW,193,6.9,6.9,82,0.00,BKN,,0.00,91.0,WeatherDisplay:10.37,2013-04-30 12:41:00,
2013-04-30 07:46:00,63.5,57.9,29.65,West,261,9.2,9.2,82,0.00,BKN,,0.00,86.0,WeatherDisplay:10.37,2013-04-30 12:46:00,
2013-04-30 07:51:00,63.9,58.0,29.65,SSE,167,8.1,8.1,81,0.00,BKN,,0.00,90.0,WeatherDisplay:10.37,2013-04-30 12:51:00,
2013-04-30 07:56:00,64.3,58.3,29.65,North,5,7.0,7.0,81,0.00,BKN,,0.00,104.0,WeatherDisplay:10.37,2013-04-30 12:56:00,
2013-04-30 08:01:00,64.7,58.4,29.65,East,90,13.8,13.8,80,0.00,SCT,,0.00,107.0,WeatherDisplay:10.37,2013-04-30 13:01:00,
2013-04-30 08:06:00,65.0,58.3,29.65,SSE,154,11.5,11.5,79,0.00,SCT,,0.00,149.0,WeatherDisplay:10.37,2013-04-30 13:06:00,
2013-04-30 08:11:00,65.4,58.7,29.65,SE,145,6.9,6.9,79,0.00,SCT,,0.00,156.0,WeatherDisplay:10.37,2013-04-30 13:11:00,
2013-04-30 08:16:00,65.8,58.7,29.65,South,171,10.4,10.4,78,0.00,SCT,,0.00,109.0,WeatherDisplay:10.37,2013-04-30 13:16:00,
2013-04-30 08:21:00,66.2,59.1,29.65,SSE,164,10.4,10.4,78,0.00,SCT,,0.00,146.0,WeatherDisplay:10.37,2013-04-30 13:21:00,
2013-04-30 08:26:00,66.6,59.2,29.65,SE,146,11.5,11.5,77,0.00,SCT,,0.00,151.0,WeatherDisplay:10.37,2013-04-30 13:26:00,
2013-04-30 08:31:00,66.9,59.1,29.65,SE,144,13.8,13.8,76,0.00,SCT,,0.00,165.0,WeatherDisplay:10.37,2013-04-30 13:31:00,
2013-04-30 08:36:00,67.4,59.2,29.64,SE,143,16.1,16.1,75,0.00,SCT,,0.00,93.0,WeatherDisplay:10.37,2013-04-30 13:36:00,
2013-04-30 08:41:00,67.7,59.1,29.64,South,188,13.8,13.8,74,0.00,SCT,,0.00,223.0,WeatherDisplay:10.37,2013-04-30 13:41:00,
2013-04-30 08:46:00,68.0,59.4,29.64,SSW,204,13.8,13.8,74,0.00,SCT,,0.00,239.0,WeatherDisplay:10.37,2013-04-30 13:46:00,
2013-04-30 08:51:00,68.4,59.4,29.64,SSW,196,17.3,17.3,73,0.00,SCT,,0.00,323.0,WeatherDisplay:10.37,2013-04-30 13:51:00,
2013-04-30 08:56:00,68.8,59.4,29.64,SSE,149,17.3,17.3,72,0.00,SCT,,0.00,334.0,WeatherDisplay:10.37,2013-04-30 13:56:00,
2013-04-30 09:01:00,69.2,59.8,29.64,SSE,157,13.8,13.8,72,0.00,SCT,,0.00,225.0,WeatherDisplay:10.37,2013-04-30 14:01:00,
2013-04-30 09:06:00,69.6,59.4,29.64,SW,226,19.6,19.6,70,0.00,SCT,,0.00,392.0,WeatherDisplay:10.37,2013-04-30 14:06:00,
2013-04-30 09:11:00,69.8,60.0,29.63,SSW,202,11.5,11.5,71,0.00,SCT,,0.00,269.0,WeatherDisplay:10.37,2013-04-30 14:11:00,
2013-04-30 09:16:00,70.1,59.5,29.63,SSW,207,11.5,11.5,69,0.00,SCT,,0.00,220.0,WeatherDisplay:10.37,2013-04-30 14:16:00,
2013-04-30 09:21:00,70.4,59.7,29.63,SSE,159,21.9,21.9,69,0.00,SCT,,0.00,288.0,WeatherDisplay:10.37,2013-04-30 14:21:00,
2013-04-30 09:26:00,70.6,59.9,29.63,SSW,200,18.4,18.4,69,0.00,SCT,,0.00,295.0,WeatherDisplay:10.37,2013-04-30 14:26:00,
2013-04-30 09:31:00,70.8,59.7,29.63,SE,139,16.1,16.1,68,0.00,SCT,,0.00,227.0,WeatherDisplay:10.37,2013-04-30 14:31:00,
2013-04-30 09:36:00,71.0,59.9,29.63,SE,143,18.4,18.4,68,0.00,SCT,,0.00,327.0,WeatherDisplay:10.37,2013-04-30 14:36:00,
2013-04-30 09:41:00,71.2,60.1,29.63,SSE,166,16.0,16.0,68,0.00,SCT,,0.00,454.0,WeatherDisplay:10.37,2013-04-30 14:41:00,
2013-04-30 09:46:00,71.3,59.8,29.63,South,172,15.0,15.0,67,0.00,SCT,,0.00,343.0,WeatherDisplay:10.37,2013-04-30 14:46:00,
2013-04-30 09:51:00,71.5,60.4,29.63,South,185,12.7,12.7,68,0.00,SCT,,0.00,441.0,WeatherDisplay:10.37,2013-04-30 14:51:00,
2013-04-30 09:56:00,71.8,60.7,29.63,South,173,16.0,16.0,68,0.00,SCT,,0.00,436.0,WeatherDisplay:10.37,2013-04-30 14:56:00,
2013-04-30 10:01:00,72.0,60.4,29.63,SE,136,15.0,15.0,67,0.00,SCT,,0.00,330.0,WeatherDisplay:10.37,2013-04-30 15:01:00,
2013-04-30 10:06:00,72.3,60.3,29.63,South,190,15.0,15.0,66,0.00,SCT,,0.00,109.0,WeatherDisplay:10.37,2013-04-30 15:06:00,
2013-04-30 10:11:00,72.5,60.5,29.63,SSW,192,13.8,13.8,66,0.00,SCT,,0.00,188.0,WeatherDisplay:10.37,2013-04-30 15:11:00,
2013-04-30 10:16:00,72.8,60.8,29.63,SSE,167,16.0,16.0,66,0.00,SCT,,0.00,364.0,WeatherDisplay:10.37,2013-04-30 15:16:00,
2013-04-30 10:21:00,73.3,61.3,29.63,SSW,202,19.6,19.6,66,0.00,SCT,,0.00,483.0,WeatherDisplay:10.37,2013-04-30 15:21:00,
2013-04-30 10:26:00,73.5,61.0,29.63,South,180,11.5,11.5,65,0.00,SCT,,0.00,439.0,WeatherDisplay:10.37,2013-04-30 15:26:00,
2013-04-30 10:31:00,73.6,60.7,29.63,South,189,18.4,18.4,64,0.00,SCT,,0.00,311.0,WeatherDisplay:10.37,2013-04-30 15:31:00,
2013-04-30 10:36:00,73.9,60.5,29.63,SSW,209,23.0,23.0,63,0.00,SCT,,0.00,123.0,WeatherDisplay:10.37,2013-04-30 15:36:00,
2013-04-30 10:41:00,74.0,60.6,29.63,SSE,164,17.3,17.3,63,0.00,SCT,,0.00,557.0,WeatherDisplay:10.37,2013-04-30 15:41:00,
2013-04-30 10:46:00,74.5,60.6,29.63,SE,127,29.9,29.9,62,0.00,SCT,,0.00,448.0,WeatherDisplay:10.37,2013-04-30 15:46:00,
2013-04-30 10:51:00,74.7,61.7,29.63,South,174,10.4,10.4,64,0.00,SCT,,0.00,316.0,WeatherDisplay:10.37,2013-04-30 15:51:00,
2013-04-30 10:56:00,75.0,61.1,29.62,South,175,15.0,15.0,62,0.00,SCT,,0.00,485.0,WeatherDisplay:10.37,2013-04-30 15:56:00,
2013-04-30 11:01:00,75.3,61.4,29.62,SE,144,20.7,20.7,62,0.00,BKN,,0.00,323.0,WeatherDisplay:10.37,2013-04-30 16:01:00,
2013-04-30 11:06:00,75.5,60.6,29.62,SSW,213,23.0,23.0,60,0.00,BKN,,0.00,462.0,WeatherDisplay:10.37,2013-04-30 16:06:00,
2013-04-30 11:11:00,75.7,61.3,29.62,South,184,15.0,15.0,61,0.00,BKN,,0.00,557.0,WeatherDisplay:10.37,2013-04-30 16:11:00,
2013-04-30 11:16:00,75.8,60.9,29.63,SE,127,20.7,20.7,60,0.00,BKN,,0.00,517.0,WeatherDisplay:10.37,2013-04-30 16:16:00,
2013-04-30 11:21:00,76.0,61.6,29.62,SSE,148,13.8,13.8,61,0.00,BKN,,0.00,744.0,WeatherDisplay:10.37,2013-04-30 16:21:00,
2013-04-30 11:26:00,76.2,61.3,29.63,South,177,17.3,17.3,60,0.00,BKN,,0.00,229.0,WeatherDisplay:10.37,2013-04-30 16:26:00,
2013-04-30 11:31:00,76.7,61.8,29.63,SE,132,15.0,15.0,60,0.00,BKN,,0.00,573.0,WeatherDisplay:10.37,2013-04-30 16:31:00,
2013-04-30 11:36:00,77.1,61.7,29.63,SE,131,16.1,16.1,59,0.00,BKN,,0.00,429.0,WeatherDisplay:10.37,2013-04-30 16:36:00,
2013-04-30 11:41:00,77.7,62.2,29.63,SSE,161,11.5,11.5,59,0.00,BKN,,0.00,490.0,WeatherDisplay:10.37,2013-04-30 16:41:00,
2013-04-30 11:46:00,78.2,61.7,29.63,East,96,21.9,21.9,57,0.00,BKN,,0.00,584.0,WeatherDisplay:10.37,2013-04-30 16:46:00,
2013-04-30 11:51:00,78.4,62.4,29.63,South,173,18.4,18.4,58,0.00,BKN,,0.00,816.0,WeatherDisplay:10.37,2013-04-30 16:51:00,
2013-04-30 11:56:00,78.7,62.2,29.63,SE,141,19.6,19.6,57,0.00,BKN,,0.00,851.0,WeatherDisplay:10.37,2013-04-30 16:56:00,
2013-04-30 12:01:00,79.0,62.0,29.63,South,169,19.6,19.6,56,0.00,BKN,,0.00,870.0,WeatherDisplay:10.37,2013-04-30 17:01:00,
2013-04-30 12:06:00,79.3,62.2,29.63,South,171,21.9,21.9,56,0.00,BKN,,0.00,874.0,WeatherDisplay:10.37,2013-04-30 17:06:00,
2013-04-30 12:11:00,79.8,62.7,29.63,WSW,238,15.0,15.0,56,0.00,BKN,,0.00,851.0,WeatherDisplay:10.37,2013-04-30 17:11:00,
2013-04-30 12:16:00,80.2,62.6,29.63,South,169,26.5,26.5,55,0.00,BKN,,0.00,791.0,WeatherDisplay:10.37,2013-04-30 17:16:00,
2013-04-30 12:21:00,80.4,62.2,29.63,South,173,12.0,12.0,54,0.00,BKN,,0.00,849.0,WeatherDisplay:10.37,2013-04-30 17:21:00,
2013-04-30 12:26:00,80.8,63.1,29.63,SSE,167,13.8,13.8,55,0.00,BKN,,0.00,898.0,WeatherDisplay:10.37,2013-04-30 17:26:00,
2013-04-30 12:31:00,81.1,62.3,29.63,SSW,198,20.7,20.7,53,0.00,BKN,,0.00,904.0,WeatherDisplay:10.37,2013-04-30 17:31:00,
2013-04-30 12:36:00,81.3,62.5,29.62,SSE,153,27.6,27.6,53,0.00,BKN,,0.00,872.0,WeatherDisplay:10.37,2013-04-30 17:36:00,
2013-04-30 12:41:00,81.4,62.1,29.62,South,175,26.5,26.5,52,0.00,BKN,,0.00,907.0,WeatherDisplay:10.37,2013-04-30 17:41:00,
2013-04-30 12:46:00,81.3,62.0,29.62,South,171,23.0,23.0,52,0.00,BKN,,0.00,919.0,WeatherDisplay:10.37,2013-04-30 17:46:00,
2013-04-30 12:51:00,81.1,61.8,29.62,South,182,26.5,26.5,52,0.00,BKN,,0.00,918.0,WeatherDisplay:10.37,2013-04-30 17:51:00,
2013-04-30 12:56:00,81.2,62.4,29.61,SSW,195,17.0,17.0,53,0.00,BKN,,0.00,919.0,WeatherDisplay:10.37,2013-04-30 17:56:00,
2013-04-30 13:01:00,81.3,62.5,29.62,SSW,205,15.0,15.0,53,0.00,BKN,,0.00,916.0,WeatherDisplay:10.37,2013-04-30 18:01:00,
2013-04-30 13:06:00,81.3,62.0,29.62,SW,218,24.2,24.2,52,0.00,BKN,,0.00,912.0,WeatherDisplay:10.37,2013-04-30 18:06:00,
2013-04-30 13:11:00,81.5,63.3,29.62,SSE,167,16.1,16.1,54,0.00,SCT,,0.00,933.0,WeatherDisplay:10.37,2013-04-30 18:11:00,
2013-04-30 13:16:00,81.9,64.1,29.62,South,180,15.0,15.0,55,0.00,SCT,,0.00,926.0,WeatherDisplay:10.37,2013-04-30 18:16:00,
2013-04-30 13:21:00,82.2,64.4,29.62,South,178,21.9,21.9,55,0.00,SCT,,0.00,933.0,WeatherDisplay:10.37,2013-04-30 18:21:00,
2013-04-30 13:26:00,82.4,63.0,29.62,South,170,16.1,16.1,52,0.00,SCT,,0.00,940.0,WeatherDisplay:10.37,2013-04-30 18:26:00,
2013-04-30 13:31:00,82.3,62.9,29.62,South,174,22.0,22.0,52,0.00,SCT,,0.00,940.0,WeatherDisplay:10.37,2013-04-30 18:31:00,
2013-04-30 13:36:00,82.3,62.9,29.61,SSE,168,19.6,19.6,52,0.00,SCT,,0.00,939.0,WeatherDisplay:10.37,2013-04-30 18:36:00,
2013-04-30 13:41:00,82.2,62.8,29.61,SSW,205,19.6,19.6,52,0.00,SCT,,0.00,939.0,WeatherDisplay:10.37,2013-04-30 18:41:00,
2013-04-30 13:46:00,82.3,62.9,29.61,South,180,20.7,20.7,52,0.00,SCT,,0.00,935.0,WeatherDisplay:10.37,2013-04-30 18:46:00,
2013-04-30 13:51:00,82.4,62.5,29.61,SW,231,20.7,20.7,51,0.00,SCT,,0.00,939.0,WeatherDisplay:10.37,2013-04-30 18:51:00,
2013-04-30 13:56:00,82.7,63.3,29.61,SE,142,20.7,20.7,52,0.00,SCT,,0.00,935.0,WeatherDisplay:10.37,2013-04-30 18:56:00,
2013-04-30 14:01:00,82.9,63.5,29.62,ESE,123,11.0,11.0,52,0.00,SCT,,0.00,925.0,WeatherDisplay:10.37,2013-04-30 19:01:00,
2013-04-30 14:06:00,83.0,63.0,29.61,SSE,164,18.4,18.4,51,0.00,SCT,,0.00,928.0,WeatherDisplay:10.37,2013-04-30 19:06:00,
2013-04-30 14:11:00,83.0,63.6,29.61,SE,127,21.9,21.9,52,0.00,SCT,,0.00,926.0,WeatherDisplay:10.37,2013-04-30 19:11:00,
2013-04-30 14:16:00,83.1,63.7,29.61,SSW,205,12.7,12.7,52,0.00,SCT,,0.00,912.0,WeatherDisplay:10.37,2013-04-30 19:16:00,
2013-04-30 14:21:00,83.4,63.4,29.61,South,186,21.0,21.0,51,0.00,SCT,,0.00,916.0,WeatherDisplay:10.37,2013-04-30 19:21:00,
2013-04-30 14:26:00,83.4,62.8,29.62,South,169,24.2,24.2,50,0.00,SCT,,0.00,907.0,WeatherDisplay:10.37,2013-04-30 19:26:00,
2013-04-30 14:31:00,83.4,63.4,29.62,SSW,192,11.5,11.5,51,0.00,SCT,,0.00,907.0,WeatherDisplay:10.37,2013-04-30 19:31:00,
2013-04-30 14:36:00,83.9,63.8,29.62,SSE,150,17.0,17.0,51,0.00,SCT,,0.00,902.0,WeatherDisplay:10.37,2013-04-30 19:36:00,
2013-04-30 14:41:00,84.0,63.4,29.62,SSE,161,18.4,18.4,50,0.00,SCT,,0.00,904.0,WeatherDisplay:10.37,2013-04-30 19:41:00,
2013-04-30 14:46:00,83.8,63.2,29.62,SSE,157,22.0,22.0,50,0.00,SCT,,0.00,879.0,WeatherDisplay:10.37,2013-04-30 19:46:00,
2013-04-30 14:51:00,83.8,63.2,29.62,SSE,158,19.6,19.6,50,0.00,SCT,,0.00,882.0,WeatherDisplay:10.37,2013-04-30 19:51:00,
2013-04-30 14:56:00,83.7,63.1,29.61,South,182,16.0,16.0,50,0.00,SCT,,0.00,874.0,WeatherDisplay:10.37,2013-04-30 19:56:00,
2013-04-30 15:01:00,83.7,63.7,29.61,SSE,162,19.6,19.6,51,0.00,SCT,,0.00,861.0,WeatherDisplay:10.37,2013-04-30 20:01:00,
2013-04-30 15:06:00,84.0,63.4,29.62,SSW,206,21.9,21.9,50,0.00,SCT,,0.00,863.0,WeatherDisplay:10.37,2013-04-30 20:06:00,
2013-04-30 15:11:00,84.0,62.8,29.61,South,169,18.4,18.4,49,0.00,SCT,,0.00,851.0,WeatherDisplay:10.37,2013-04-30 20:11:00,
2013-04-30 15:16:00,84.3,64.2,29.62,South,174,10.4,10.4,51,0.00,SCT,,0.00,844.0,WeatherDisplay:10.37,2013-04-30 20:16:00,
2013-04-30 15:21:00,84.7,62.8,29.61,SE,126,21.9,21.9,48,0.00,SCT,,0.00,833.0,WeatherDisplay:10.37,2013-04-30 20:21:00,
2013-04-30 15:26:00,84.6,62.7,29.62,South,171,15.0,15.0,48,0.00,SCT,,0.00,830.0,WeatherDisplay:10.37,2013-04-30 20:26:00,
2013-04-30 15:31:00,84.3,61.9,29.62,South,183,13.8,13.8,47,0.00,SCT,,0.00,838.0,WeatherDisplay:10.37,2013-04-30 20:31:00,
2013-04-30 15:36:00,84.0,61.0,29.62,South,185,19.6,19.6,46,0.00,SCT,,0.00,823.0,WeatherDisplay:10.37,2013-04-30 20:36:00,
2013-04-30 15:41:00,84.0,60.4,29.62,South,169,25.3,25.3,45,0.00,SCT,,0.00,809.0,WeatherDisplay:10.37,2013-04-30 20:41:00,
2013-04-30 15:46:00,84.2,62.4,29.62,SSE,159,10.4,10.4,48,0.00,SCT,,0.00,800.0,WeatherDisplay:10.37,2013-04-30 20:46:00,
2013-04-30 15:51:00,84.1,61.7,29.61,SSE,163,25.3,25.3,47,0.00,SCT,,0.00,782.0,WeatherDisplay:10.37,2013-04-30 20:51:00,
2013-04-30 15:56:00,84.2,61.2,29.62,SSW,195,18.4,18.4,46,0.00,SCT,,0.00,780.0,WeatherDisplay:10.37,2013-04-30 20:56:00,
2013-04-30 16:01:00,84.2,59.9,29.61,SSW,192,25.3,25.3,44,0.00,FEW,,0.00,770.0,WeatherDisplay:10.37,2013-04-30 21:01:00,
2013-04-30 16:06:00,84.2,61.8,29.61,East,90,11.5,11.5,47,0.00,FEW,,0.00,756.0,WeatherDisplay:10.37,2013-04-30 21:06:00,
2013-04-30 16:11:00,84.3,61.3,29.61,South,182,12.7,12.7,46,0.00,FEW,,0.00,744.0,WeatherDisplay:10.37,2013-04-30 21:11:00,
2013-04-30 16:16:00,84.4,60.1,29.61,South,189,18.0,18.0,44,0.00,FEW,,0.00,731.0,WeatherDisplay:10.37,2013-04-30 21:16:00,
2013-04-30 16:21:00,84.1,59.8,29.61,SSW,194,21.9,21.9,44,0.00,FEW,,0.00,721.0,WeatherDisplay:10.37,2013-04-30 21:21:00,
2013-04-30 16:26:00,84.0,59.7,29.62,South,174,19.0,19.0,44,0.00,FEW,,0.00,708.0,WeatherDisplay:10.37,2013-04-30 21:26:00,
2013-04-30 16:31:00,83.9,60.3,29.61,WSW,239,11.5,11.5,45,0.00,FEW,,0.00,696.0,WeatherDisplay:10.37,2013-04-30 21:31:00,
2013-04-30 16:36:00,84.2,60.6,29.61,South,173,12.7,12.7,45,0.00,FEW,,0.00,679.0,WeatherDisplay:10.37,2013-04-30 21:36:00,
2013-04-30 16:41:00,84.4,60.1,29.61,South,183,15.0,15.0,44,0.00,FEW,,0.00,661.0,WeatherDisplay:10.37,2013-04-30 21:41:00,
2013-04-30 16:46:00,84.4,61.4,29.61,SSW,205,15.0,15.0,46,0.00,FEW,,0.00,649.0,WeatherDisplay:10.37,2013-04-30 21:46:00,
2013-04-30 16:51:00,84.3,61.3,29.61,SSE,167,10.4,10.4,46,0.00,FEW,,0.00,636.0,WeatherDisplay:10.37,2013-04-30 21:51:00,
2013-04-30 16:56:00,84.3,60.6,29.61,SSE,165,13.0,13.0,45,0.00,FEW,,0.00,622.0,WeatherDisplay:10.37,2013-04-30 21:56:00,
2013-04-30 17:01:00,84.0,59.7,29.61,SE,143,17.3,17.3,44,0.00,FEW,,0.00,606.0,WeatherDisplay:10.37,2013-04-30 22:01:00,
2013-04-30 17:06:00,83.8,60.8,29.61,SE,130,15.0,15.0,46,0.00,FEW,,0.00,591.0,WeatherDisplay:10.37,2013-04-30 22:06:00,
2013-04-30 17:11:00,83.6,60.0,29.61,ESE,121,11.5,11.5,45,0.00,FEW,,0.00,578.0,WeatherDisplay:10.37,2013-04-30 22:11:00,
2013-04-30 17:16:00,83.5,59.3,29.61,SE,146,11.5,11.5,44,0.00,FEW,,0.00,557.0,WeatherDisplay:10.37,2013-04-30 22:16:00,
2013-04-30 17:21:00,83.5,59.3,29.61,ESE,120,16.1,16.1,44,0.00,CLR,,0.00,543.0,WeatherDisplay:10.37,2013-04-30 22:21:00,
2013-04-30 17:26:00,83.4,58.6,29.61,SSE,153,11.5,11.5,43,0.00,CLR,,0.00,527.0,WeatherDisplay:10.37,2013-04-30 22:26:00,
2013-04-30 17:31:00,83.4,58.6,29.62,SSW,200,10.4,10.4,43,0.00,CLR,,0.00,510.0,WeatherDisplay:10.37,2013-04-30 22:31:00,
2013-04-30 17:36:00,83.5,59.3,29.61,SE,144,13.8,13.8,44,0.00,CLR,,0.00,496.0,WeatherDisplay:10.37,2013-04-30 22:36:00,
2013-04-30 17:41:00,83.4,59.2,29.61,East,96,13.0,13.0,44,0.00,CLR,,0.00,480.0,WeatherDisplay:10.37,2013-04-30 22:41:00,
2013-04-30 17:46:00,83.3,59.1,29.61,SSE,151,11.5,11.5,44,0.00,CLR,,0.00,459.0,WeatherDisplay:10.37,2013-04-30 22:46:00,
2013-04-30 17:51:00,83.3,57.8,29.61,South,186,12.7,12.7,42,0.00,CLR,,0.00,446.0,WeatherDisplay:10.37,2013-04-30 22:51:00,
2013-04-30 17:56:00,83.3,59.7,29.61,South,171,6.9,6.9,45,0.00,CLR,,0.00,427.0,WeatherDisplay:10.37,2013-04-30 22:56:00,
2013-04-30 18:01:00,83.3,58.5,29.61,SE,145,17.3,17.3,43,0.00,FEW,,0.00,411.0,WeatherDisplay:10.37,2013-04-30 23:01:00,
2013-04-30 18:06:00,83.2,59.0,29.62,ESE,123,11.5,11.5,44,0.00,FEW,,0.00,396.0,WeatherDisplay:10.37,2013-04-30 23:06:00,
2013-04-30 18:11:00,83.2,59.0,29.62,SSE,163,8.1,8.1,44,0.00,FEW,,0.00,376.0,WeatherDisplay:10.37,2013-04-30 23:11:00,
2013-04-30 18:16:00,83.2,59.6,29.62,South,180,11.5,11.5,45,0.00,FEW,,0.00,357.0,WeatherDisplay:10.37,2013-04-30 23:16:00,
2013-04-30 18:21:00,82.9,59.4,29.61,SSE,165,11.5,11.5,45,0.00,FEW,,0.00,339.0,WeatherDisplay:10.37,2013-04-30 23:21:00,
2013-04-30 18:26:00,82.4,58.9,29.62,SSE,167,11.5,11.5,45,0.00,FEW,,0.00,320.0,WeatherDisplay:10.37,2013-04-30 23:26:00,
2013-04-30 18:31:00,82.0,59.2,29.62,ESE,119,16.1,16.1,46,0.00,FEW,,0.00,299.0,WeatherDisplay:10.37,2013-04-30 23:31:00,
2013-04-30 18:36:00,81.8,59.6,29.62,SSE,166,11.5,11.5,47,0.00,FEW,,0.00,279.0,WeatherDisplay:10.37,2013-04-30 23:36:00,
2013-04-30 18:41:00,81.5,59.3,29.62,SE,133,10.4,10.4,47,0.00,FEW,,0.00,54.0,WeatherDisplay:10.37,2013-04-30 23:41:00,
2013-04-30 18:46:00,81.2,59.6,29.62,SSE,149,11.0,11.0,48,0.00,FEW,,0.00,51.0,WeatherDisplay:10.37,2013-04-30 23:46:00,
2013-04-30 18:51:00,80.9,59.4,29.62,ESE,123,12.7,12.7,48,0.00,FEW,,0.00,49.0,WeatherDisplay:10.37,2013-04-30 23:51:00,
2013-04-30 18:56:00,80.7,58.6,29.62,SSE,153,9.2,9.2,47,0.00,FEW,,0.00,47.0,WeatherDisplay:10.37,2013-04-30 23:56:00,
2013-04-30 19:01:00,80.5,59.0,29.62,SSE,150,11.5,11.5,48,0.00,FEW,,0.00,46.0,WeatherDisplay:10.37,2013-05-01 00:01:00,
2013-04-30 19:06:00,80.2,58.7,29.63,SE,137,9.2,9.2,48,0.00,FEW,,0.00,44.0,WeatherDisplay:10.37,2013-05-01 00:06:00,
2013-04-30 19:11:00,80.0,58.5,29.63,SW,234,9.2,9.2,48,0.00,FEW,,0.00,42.0,WeatherDisplay:10.37,2013-05-01 00:11:00,
2013-04-30 19:16:00,79.7,58.3,29.63,SE,146,11.5,11.5,48,0.00,FEW,,0.00,40.0,WeatherDisplay:10.37,2013-05-01 00:16:00,
2013-04-30 19:21:00,79.4,58.6,29.63,South,189,5.8,5.8,49,0.00,FEW,,0.00,39.0,WeatherDisplay:10.37,2013-05-01 00:21:00,
2013-04-30 19:26:00,79.2,59.0,29.63,ESE,117,8.1,8.1,50,0.00,FEW,,0.00,35.0,WeatherDisplay:10.37,2013-05-01 00:26:00,
2013-04-30 19:31:00,79.0,58.8,29.63,SE,127,8.0,8.0,50,0.00,FEW,,0.00,33.0,WeatherDisplay:10.37,2013-05-01 00:31:00,
2013-04-30 19:36:00,78.7,59.0,29.63,SE,124,11.5,11.5,51,0.00,FEW,,0.00,30.0,WeatherDisplay:10.37,2013-05-01 00:36:00,
2013-04-30 19:41:00,78.4,58.8,29.63,SE,125,11.0,11.0,51,0.00,FEW,,0.00,28.0,WeatherDisplay:10.37,2013-05-01 00:41:00,
2013-04-30 19:46:00,78.2,58.6,29.63,East,85,5.8,5.8,51,0.00,FEW,,0.00,19.0,WeatherDisplay:10.37,2013-05-01 00:46:00,
2013-04-30 19:51:00,77.8,58.8,29.63,SSE,160,4.6,4.6,52,0.00,FEW,,0.00,16.0,WeatherDisplay:10.37,2013-05-01 00:51:00,
2013-04-30 19:56:00,77.4,58.9,29.63,SSE,167,10.4,10.4,53,0.00,FEW,,0.00,12.0,WeatherDisplay:10.37,2013-05-01 00:56:00,
2013-04-30 20:01:00,77.0,59.1,29.64,South,172,3.5,3.5,54,0.00,FEW,,0.00,12.0,WeatherDisplay:10.37,2013-05-01 01:01:00,
2013-04-30 20:06:00,76.6,58.7,29.64,South,177,8.1,8.1,54,0.00,FEW,,0.00,11.0,WeatherDisplay:10.37,2013-05-01 01:06:00,
2013-04-30 20:11:00,76.2,58.9,29.64,SSE,154,6.9,6.9,55,0.00,FEW,,0.00,7.0,WeatherDisplay:10.37,2013-05-01 01:11:00,
2013-04-30 20:16:00,76.0,58.7,29.64,SE,131,6.9,6.9,55,0.00,FEW,,0.00,0.0,WeatherDisplay:10.37,2013-05-01 01:16:00,
2013-04-30 20:21:00,75.7,58.9,29.65,SSE,154,8.1,8.1,56,0.00,FEW,,0.00,0.0,WeatherDisplay:10.37,2013-05-01 01:21:00,
2013-04-30 20:26:00,75.3,58.5,29.65,SE,127,6.9,6.9,56,0.00,FEW,,0.00,0.0,WeatherDisplay:10.37,2013-05-01 01:26:00,
2013-04-30 20:31:00,75.1,57.8,29.65,ESE,119,9.2,9.2,55,0.00,FEW,,0.00,0.0,WeatherDisplay:10.37,2013-05-01 01:31:00,
2013-04-30 20:36:00,74.8,58.1,29.65,ESE,121,10.4,10.4,56,0.00,FEW,,0.00,0.0,WeatherDisplay:10.37,2013-05-01 01:36:00,
2013-04-30 20:41:00,74.6,57.4,29.66,SE,130,8.1,8.1,55,0.00,FEW,,0.00,0.0,WeatherDisplay:10.37,2013-05-01 01:41:00,
2013-04-30 20:46:00,74.4,57.2,29.65,SSE,148,4.6,4.6,55,0.00,FEW,,0.00,0.0,WeatherDisplay:10.37,2013-05-01 01:46:00,
2013-04-30 20:51:00,74.2,57.0,29.65,SE,140,9.2,9.2,55,0.00,FEW,,0.00,0.0,WeatherDisplay:10.37,2013-05-01 01:51:00,
2013-04-30 20:56:00,73.9,56.7,29.66,SSE,151,8.1,8.1,55,0.00,FEW,,0.00,0.0,WeatherDisplay:10.37,2013-05-01 01:56:00,
2013-04-30 21:01:00,73.7,56.5,29.66,ESE,105,11.5,11.5,55,0.00,FEW,,0.00,0.0,WeatherDisplay:10.37,2013-05-01 02:01:00,
2013-04-30 21:06:00,73.5,56.8,29.66,SE,130,5.8,5.8,56,0.00,FEW,,0.00,0.0,WeatherDisplay:10.37,2013-05-01 02:06:00,
2013-04-30 21:11:00,73.2,56.6,29.66,SE,125,7.0,7.0,56,0.00,FEW,,0.00,0.0,WeatherDisplay:10.37,2013-05-01 02:11:00,
2013-04-30 21:16:00,73.0,56.4,29.66,SE,128,3.5,3.5,56,0.00,FEW,,0.00,0.0,WeatherDisplay:10.37,2013-05-01 02:16:00,
2013-04-30 21:21:00,72.8,56.7,29.66,ESE,119,3.5,3.5,57,0.00,FEW,,0.00,0.0,WeatherDisplay:10.37,2013-05-01 02:21:00,
2013-04-30 21:26:00,72.6,56.5,29.67,ESE,116,8.1,8.1,57,0.00,FEW,,0.00,0.0,WeatherDisplay:10.37,2013-05-01 02:26:00,
2013-04-30 21:31:00,72.4,56.3,29.67,ESE,114,6.9,6.9,57,0.00,FEW,,0.00,0.0,WeatherDisplay:10.37,2013-05-01 02:31:00,
2013-04-30 21:36:00,72.2,56.6,29.67,ESE,115,4.6,4.6,58,0.00,FEW,,0.00,0.0,WeatherDisplay:10.37,2013-05-01 02:36:00,
2013-04-30 21:41:00,72.0,56.4,29.67,SE,127,9.2,9.2,58,0.00,FEW,,0.00,0.0,WeatherDisplay:10.37,2013-05-01 02:41:00,
2013-04-30 21:46:00,71.9,56.3,29.68,SSE,149,4.6,4.6,58,0.00,FEW,,0.00,0.0,WeatherDisplay:10.37,2013-05-01 02:46:00,
2013-04-30 21:51:00,71.7,56.1,29.68,SSE,167,9.2,9.2,58,0.00,FEW,,0.00,0.0,WeatherDisplay:10.37,2013-05-01 02:51:00,
2013-04-30 21:56:00,71.6,56.5,29.68,SE,142,6.0,6.0,59,0.00,FEW,,0.00,0.0,WeatherDisplay:10.37,2013-05-01 02:56:00,
2013-04-30 22:01:00,71.4,56.8,29.69,SE,131,11.5,11.5,60,0.00,FEW,,0.00,0.0,WeatherDisplay:10.37,2013-05-01 03:01:00,
2013-04-30 22:06:00,71.3,56.7,29.69,SSE,152,3.5,3.5,60,0.00,FEW,,0.00,0.0,WeatherDisplay:10.37,2013-05-01 03:06:00,
2013-04-30 22:11:00,71.1,56.5,29.69,SSE,152,9.2,9.2,60,0.00,FEW,,0.00,0.0,WeatherDisplay:10.37,2013-05-01 03:11:00,
2013-04-30 22:16:00,70.9,56.3,29.69,SE,132,5.8,5.8,60,0.00,FEW,,0.00,0.0,WeatherDisplay:10.37,2013-05-01 03:16:00,
2013-04-30 22:21:00,70.7,56.6,29.69,SE,146,5.8,5.8,61,0.00,FEW,,0.00,0.0,WeatherDisplay:10.37,2013-05-01 03:21:00,
2013-04-30 22:26:00,70.4,56.3,29.70,SE,143,3.5,3.5,61,0.00,FEW,,0.00,0.0,WeatherDisplay:10.37,2013-05-01 03:26:00,
2013-04-30 22:31:00,70.1,56.0,29.70,ESE,123,8.1,8.1,61,0.00,FEW,,0.00,0.0,WeatherDisplay:10.37,2013-05-01 03:31:00,
2013-04-30 22:36:00,70.0,55.9,29.70,SSE,156,10.4,10.4,61,0.00,FEW,,0.00,0.0,WeatherDisplay:10.37,2013-05-01 03:36:00,
2013-04-30 22:41:00,70.0,55.9,29.70,South,179,10.4,10.4,61,0.00,FEW,,0.00,0.0,WeatherDisplay:10.37,2013-05-01 03:41:00,
2013-04-30 22:46:00,70.1,56.0,29.70,SE,129,8.1,8.1,61,0.00,FEW,,0.00,0.0,WeatherDisplay:10.37,2013-05-01 03:46:00,
2013-04-30 22:51:00,70.1,55.6,29.70,ESE,103,8.1,8.1,60,0.00,FEW,,0.00,0.0,WeatherDisplay:10.37,2013-05-01 03:51:00,
2013-04-30 22:56:00,70.0,55.5,29.70,SE,127,9.2,9.2,60,0.00,FEW,,0.00,0.0,WeatherDisplay:10.37,2013-05-01 03:56:00,
2013-04-30 23:01:00,69.9,55.8,29.70,SSE,153,10.4,10.4,61,0.00,FEW,,0.00,0.0,WeatherDisplay:10.37,2013-05-01 04:01:00,
2013-04-30 23:06:00,69.8,55.7,29.70,SE,143,4.6,4.6,61,0.00,CLR,,0.00,0.0,WeatherDisplay:10.37,2013-05-01 04:06:00,
2013-04-30 23:11:00,69.8,55.7,29.70,SSE,153,11.5,11.5,61,0.00,CLR,,0.00,0.0,WeatherDisplay:10.37,2013-05-01 04:11:00,
2013-04-30 23:16:00,69.7,55.6,29.70,East,88,8.1,8.1,61,0.00,CLR,,0.00,0.0,WeatherDisplay:10.37,2013-05-01 04:16:00,
2013-04-30 23:21:00,69.6,55.6,29.70,ESE,119,13.8,13.8,61,0.00,CLR,,0.00,0.0,WeatherDisplay:10.37,2013-05-01 04:21:00,
2013-04-30 23:26:00,69.6,55.6,29.70,ESE,115,12.7,12.7,61,0.00,CLR,,0.00,0.0,WeatherDisplay:10.37,2013-05-01 04:26:00,
2013-04-30 23:31:00,69.6,55.6,29.70,SE,131,15.0,15.0,61,0.00,CLR,,0.00,0.0,WeatherDisplay:10.37,2013-05-01 04:31:00,
2013-04-30 23:36:00,69.4,55.4,29.71,ESE,115,10.4,10.4,61,0.00,CLR,,0.00,0.0,WeatherDisplay:10.37,2013-05-01 04:36:00,
2013-04-30 23:41:00,69.4,55.4,29.71,South,186,11.5,11.5,61,0.00,CLR,,0.00,0.0,WeatherDisplay:10.37,2013-05-01 04:41:00,
2013-04-30 23:46:00,69.3,55.3,29.71,South,181,5.8,5.8,61,0.00,CLR,,0.00,0.0,WeatherDisplay:10.37,2013-05-01 04:46:00,
2013-04-30 23:51:00,69.3,55.7,29.71,SSE,157,7.0,7.0,62,0.00,CLR,,0.00,0.0,WeatherDisplay:10.37,2013-05-01 04:51:00,
2013-04-30 23:56:00,69.2,55.2,29.71,South,173,8.1,8.1,61,0.00,CLR,,0.00,0.0,WeatherDisplay:10.37,2013-05-01 04:56:00,